sensor_id;sensor_type;location;lat;lon;timestamp;noise_LAeq;noise_LA_min;noise_LA_max;noise_LA01;noise_LA95
66888;Laerm;67239;51.680;5.976;2023-06-19T00:01:41;41.85;37.01;63.58;;
66888;Laerm;67239;51.680;5.976;2023-06-19T00:04:27;40.40;35.77;45.42;;
66888;Laerm;67239;51.680;5.976;2023-06-19T00:07:12;39.81;35.89;45.08;;
66888;Laerm;67239;51.680;5.976;2023-06-19T00:09:57;41.38;37.32;46.31;;
66888;Laerm;67239;51.680;5.976;2023-06-19T00:12:43;41.72;36.87;70.97;;
66888;Laerm;67239;51.680;5.976;2023-06-19T00:15:28;40.20;36.57;46.29;;
66888;Laerm;67239;51.680;5.976;2023-06-19T00:18:14;41.84;36.50;48.12;;
66888;Laerm;67239;51.680;5.976;2023-06-19T00:21:01;43.23;37.19;52.46;;
66888;Laerm;67239;51.680;5.976;2023-06-19T00:23:46;40.90;36.85;45.48;;
66888;Laerm;67239;51.680;5.976;2023-06-19T00:26:32;41.87;36.69;48.62;;
66888;Laerm;67239;51.680;5.976;2023-06-19T00:29:17;42.60;37.48;49.86;;
66888;Laerm;67239;51.680;5.976;2023-06-19T00:32:02;43.10;38.14;60.31;;
66888;Laerm;67239;51.680;5.976;2023-06-19T00:34:48;42.75;36.93;47.85;;
66888;Laerm;67239;51.680;5.976;2023-06-19T00:37:33;41.32;36.65;46.98;;
66888;Laerm;67239;51.680;5.976;2023-06-19T00:40:31;40.66;37.44;44.47;;
66888;Laerm;67239;51.680;5.976;2023-06-19T00:43:17;40.44;36.45;46.75;;
66888;Laerm;67239;51.680;5.976;2023-06-19T00:46:03;39.59;36.41;44.69;;
66888;Laerm;67239;51.680;5.976;2023-06-19T00:48:49;38.01;35.47;45.72;;
66888;Laerm;67239;51.680;5.976;2023-06-19T00:51:36;39.61;35.44;48.58;;
66888;Laerm;67239;51.680;5.976;2023-06-19T00:54:22;39.86;35.49;46.20;;
66888;Laerm;67239;51.680;5.976;2023-06-19T00:57:08;39.20;35.69;42.89;;
66888;Laerm;67239;51.680;5.976;2023-06-19T00:59:53;39.41;35.89;44.27;;
66888;Laerm;67239;51.680;5.976;2023-06-19T01:02:40;39.03;35.13;44.40;;
66888;Laerm;67239;51.680;5.976;2023-06-19T01:05:25;39.52;35.49;43.55;;
66888;Laerm;67239;51.680;5.976;2023-06-19T01:08:37;39.53;35.13;43.65;;
66888;Laerm;67239;51.680;5.976;2023-06-19T01:11:34;38.21;35.02;42.09;;
66888;Laerm;67239;51.680;5.976;2023-06-19T01:14:26;38.94;35.42;46.55;;
66888;Laerm;67239;51.680;5.976;2023-06-19T01:17:13;37.62;34.63;56.27;;
66888;Laerm;67239;51.680;5.976;2023-06-19T01:20:00;37.42;34.54;44.10;;
66888;Laerm;67239;51.680;5.976;2023-06-19T01:22:45;37.46;34.27;41.51;;
66888;Laerm;67239;51.680;5.976;2023-06-19T01:25:31;38.27;35.58;45.38;;
66888;Laerm;67239;51.680;5.976;2023-06-19T01:28:16;37.61;34.97;42.13;;
66888;Laerm;67239;51.680;5.976;2023-06-19T01:31:13;52.38;35.42;70.07;;
66888;Laerm;67239;51.680;5.976;2023-06-19T01:34:04;41.61;35.87;46.33;;
66888;Laerm;67239;51.680;5.976;2023-06-19T01:36:54;44.36;36.92;51.48;;
66888;Laerm;67239;51.680;5.976;2023-06-19T01:39:45;45.88;39.14;55.10;;
66888;Laerm;67239;51.680;5.976;2023-06-19T01:42:33;45.15;39.88;54.19;;
66888;Laerm;67239;51.680;5.976;2023-06-19T01:45:20;44.83;39.74;51.24;;
66888;Laerm;67239;51.680;5.976;2023-06-19T01:48:08;57.48;38.29;77.61;;
66888;Laerm;67239;51.680;5.976;2023-06-19T01:50:56;58.10;38.05;75.16;;
66888;Laerm;67239;51.680;5.976;2023-06-19T01:53:42;46.81;38.83;54.90;;
66888;Laerm;67239;51.680;5.976;2023-06-19T01:56:27;57.34;39.39;76.47;;
66888;Laerm;67239;51.680;5.976;2023-06-19T01:59:13;50.09;39.59;60.42;;
66888;Laerm;67239;51.680;5.976;2023-06-19T02:01:58;50.37;43.48;60.84;;
66888;Laerm;67239;51.680;5.976;2023-06-19T02:04:43;49.31;42.32;75.13;;
66888;Laerm;67239;51.680;5.976;2023-06-19T02:07:29;63.05;40.43;82.66;;
66888;Laerm;67239;51.680;5.976;2023-06-19T02:10:14;56.16;39.29;75.56;;
66888;Laerm;67239;51.680;5.976;2023-06-19T02:12:59;58.73;41.94;76.50;;
66888;Laerm;67239;51.680;5.976;2023-06-19T02:15:45;49.32;41.23;59.28;;
66888;Laerm;67239;51.680;5.976;2023-06-19T02:18:30;47.35;41.19;64.55;;
66888;Laerm;67239;51.680;5.976;2023-06-19T02:21:16;48.26;39.76;68.14;;
66888;Laerm;67239;51.680;5.976;2023-06-19T02:24:01;46.06;39.31;53.44;;
66888;Laerm;67239;51.680;5.976;2023-06-19T02:26:46;52.92;40.71;69.41;;
66888;Laerm;67239;51.680;5.976;2023-06-19T02:29:32;52.61;40.95;70.81;;
66888;Laerm;67239;51.680;5.976;2023-06-19T02:32:20;47.19;36.74;63.52;;
66888;Laerm;67239;51.680;5.976;2023-06-19T02:35:09;50.14;38.00;71.05;;
66888;Laerm;67239;51.680;5.976;2023-06-19T02:37:54;44.60;38.92;53.11;;
66888;Laerm;67239;51.680;5.976;2023-06-19T02:40:39;55.01;38.46;72.85;;
66888;Laerm;67239;51.680;5.976;2023-06-19T02:43:25;51.82;38.98;76.53;;
66888;Laerm;67239;51.680;5.976;2023-06-19T02:46:10;42.70;36.10;64.16;;
66888;Laerm;67239;51.680;5.976;2023-06-19T02:48:58;47.96;37.26;64.33;;
66888;Laerm;67239;51.680;5.976;2023-06-19T02:51:44;48.41;40.25;69.30;;
66888;Laerm;67239;51.680;5.976;2023-06-19T02:54:29;57.40;38.87;73.14;;
66888;Laerm;67239;51.680;5.976;2023-06-19T02:57:15;56.17;39.61;73.05;;
66888;Laerm;67239;51.680;5.976;2023-06-19T03:00:00;63.11;39.72;79.61;;
66888;Laerm;67239;51.680;5.976;2023-06-19T03:02:46;50.52;40.79;66.60;;
66888;Laerm;67239;51.680;5.976;2023-06-19T03:05:33;59.73;38.11;79.87;;
66888;Laerm;67239;51.680;5.976;2023-06-19T03:08:19;62.25;38.83;81.42;;
66888;Laerm;67239;51.680;5.976;2023-06-19T03:11:04;49.55;39.24;65.10;;
66888;Laerm;67239;51.680;5.976;2023-06-19T03:13:52;60.10;36.99;76.47;;
66888;Laerm;67239;51.680;5.976;2023-06-19T03:16:38;65.07;37.10;82.16;;
66888;Laerm;67239;51.680;5.976;2023-06-19T03:19:23;64.69;37.20;81.77;;
66888;Laerm;67239;51.680;5.976;2023-06-19T03:22:08;54.82;37.98;72.96;;
66888;Laerm;67239;51.680;5.976;2023-06-19T03:24:55;60.98;38.53;76.73;;
66888;Laerm;67239;51.680;5.976;2023-06-19T03:27:41;62.64;38.09;76.15;;
66888;Laerm;67239;51.680;5.976;2023-06-19T03:30:26;61.38;38.10;77.50;;
66888;Laerm;67239;51.680;5.976;2023-06-19T03:33:11;60.93;38.51;79.20;;
66888;Laerm;67239;51.680;5.976;2023-06-19T03:36:03;61.46;38.02;77.04;;
66888;Laerm;67239;51.680;5.976;2023-06-19T03:39:03;66.58;38.95;83.62;;
66888;Laerm;67239;51.680;5.976;2023-06-19T03:41:49;64.96;37.70;83.44;;
66888;Laerm;67239;51.680;5.976;2023-06-19T03:44:34;68.65;39.85;87.19;;
66888;Laerm;67239;51.680;5.976;2023-06-19T03:47:21;66.85;38.07;81.25;;
66888;Laerm;67239;51.680;5.976;2023-06-19T03:50:07;66.13;38.55;80.40;;
66888;Laerm;67239;51.680;5.976;2023-06-19T03:53:05;66.09;38.37;82.45;;
66888;Laerm;67239;51.680;5.976;2023-06-19T03:55:50;64.93;38.89;80.23;;
66888;Laerm;67239;51.680;5.976;2023-06-19T03:58:39;62.07;38.63;78.83;;
66888;Laerm;67239;51.680;5.976;2023-06-19T04:01:24;65.76;38.83;81.81;;
66888;Laerm;67239;51.680;5.976;2023-06-19T04:04:10;67.77;41.20;85.28;;
66888;Laerm;67239;51.680;5.976;2023-06-19T04:06:55;64.43;41.74;81.84;;
66888;Laerm;67239;51.680;5.976;2023-06-19T04:09:43;64.89;42.11;77.40;;
66888;Laerm;67239;51.680;5.976;2023-06-19T04:12:29;66.41;40.96;80.63;;
66888;Laerm;67239;51.680;5.976;2023-06-19T04:15:14;67.00;42.00;81.79;;
66888;Laerm;67239;51.680;5.976;2023-06-19T04:17:59;48.81;41.28;67.51;;
66888;Laerm;67239;51.680;5.976;2023-06-19T04:20:46;67.65;44.64;82.60;;
66888;Laerm;67239;51.680;5.976;2023-06-19T04:23:31;62.27;45.48;76.55;;
66888;Laerm;67239;51.680;5.976;2023-06-19T04:26:17;64.81;40.90;81.50;;
66888;Laerm;67239;51.680;5.976;2023-06-19T04:29:03;61.07;41.90;78.44;;
66888;Laerm;67239;51.680;5.976;2023-06-19T04:31:50;67.71;43.84;81.67;;
66888;Laerm;67239;51.680;5.976;2023-06-19T04:34:35;70.62;46.63;84.24;;
66888;Laerm;67239;51.680;5.976;2023-06-19T04:37:21;67.22;44.81;80.67;;
66888;Laerm;67239;51.680;5.976;2023-06-19T04:40:07;67.68;44.77;83.37;;
66888;Laerm;67239;51.680;5.976;2023-06-19T04:42:53;69.54;46.64;88.41;;
66888;Laerm;67239;51.680;5.976;2023-06-19T04:45:39;66.48;47.66;83.58;;
66888;Laerm;67239;51.680;5.976;2023-06-19T04:48:24;64.57;44.57;79.78;;
66888;Laerm;67239;51.680;5.976;2023-06-19T04:51:10;66.57;46.58;81.38;;
66888;Laerm;67239;51.680;5.976;2023-06-19T04:53:55;67.41;48.53;80.61;;
66888;Laerm;67239;51.680;5.976;2023-06-19T04:56:41;68.52;48.44;82.37;;
66888;Laerm;67239;51.680;5.976;2023-06-19T04:59:26;68.85;49.76;84.38;;
66888;Laerm;67239;51.680;5.976;2023-06-19T05:02:11;68.11;45.77;79.69;;
66888;Laerm;67239;51.680;5.976;2023-06-19T05:04:56;67.52;43.48;81.71;;
66888;Laerm;67239;51.680;5.976;2023-06-19T05:07:42;68.23;44.55;81.50;;
66888;Laerm;67239;51.680;5.976;2023-06-19T05:10:27;66.70;44.82;80.15;;
66888;Laerm;67239;51.680;5.976;2023-06-19T05:13:13;69.43;45.99;82.41;;
66888;Laerm;67239;51.680;5.976;2023-06-19T05:15:58;67.53;44.37;82.31;;
66888;Laerm;67239;51.680;5.976;2023-06-19T05:18:43;66.90;45.89;82.54;;
66888;Laerm;67239;51.680;5.976;2023-06-19T05:21:29;68.59;47.69;82.39;;
66888;Laerm;67239;51.680;5.976;2023-06-19T05:24:14;67.72;44.13;83.45;;
66888;Laerm;67239;51.680;5.976;2023-06-19T05:26:59;67.46;43.58;81.16;;
66888;Laerm;67239;51.680;5.976;2023-06-19T05:29:45;67.84;47.22;80.77;;
66888;Laerm;67239;51.680;5.976;2023-06-19T05:32:30;66.47;44.29;82.66;;
66888;Laerm;67239;51.680;5.976;2023-06-19T05:35:16;68.56;47.21;81.33;;
66888;Laerm;67239;51.680;5.976;2023-06-19T05:38:01;69.00;47.06;87.43;;
66888;Laerm;67239;51.680;5.976;2023-06-19T05:40:46;68.11;46.55;80.49;;
66888;Laerm;67239;51.680;5.976;2023-06-19T05:43:31;66.49;45.77;79.76;;
66888;Laerm;67239;51.680;5.976;2023-06-19T05:46:17;67.16;45.93;82.84;;
66888;Laerm;67239;51.680;5.976;2023-06-19T05:49:02;68.56;46.91;78.67;;
66888;Laerm;67239;51.680;5.976;2023-06-19T05:51:49;67.68;44.91;79.72;;
66888;Laerm;67239;51.680;5.976;2023-06-19T05:54:34;68.80;45.96;79.22;;
66888;Laerm;67239;51.680;5.976;2023-06-19T05:57:20;67.97;47.42;81.22;;
66888;Laerm;67239;51.680;5.976;2023-06-19T06:00:09;62.70;44.75;78.77;;
66888;Laerm;67239;51.680;5.976;2023-06-19T06:02:59;70.70;46.81;82.16;;
66888;Laerm;67239;51.680;5.976;2023-06-19T06:05:45;66.52;47.56;80.59;;
66888;Laerm;67239;51.680;5.976;2023-06-19T06:08:33;68.10;48.08;79.74;;
66888;Laerm;67239;51.680;5.976;2023-06-19T06:11:19;67.52;46.58;83.70;;
66888;Laerm;67239;51.680;5.976;2023-06-19T06:14:05;67.52;49.73;78.23;;
66888;Laerm;67239;51.680;5.976;2023-06-19T06:16:50;67.54;46.31;79.88;;
66888;Laerm;67239;51.680;5.976;2023-06-19T06:19:35;67.83;47.91;79.60;;
66888;Laerm;67239;51.680;5.976;2023-06-19T06:22:22;70.30;50.00;80.91;;
66888;Laerm;67239;51.680;5.976;2023-06-19T06:25:08;70.11;51.06;83.42;;
66888;Laerm;67239;51.680;5.976;2023-06-19T06:27:58;68.51;46.19;81.22;;
66888;Laerm;67239;51.680;5.976;2023-06-19T06:30:43;70.29;48.24;82.93;;
66888;Laerm;67239;51.680;5.976;2023-06-19T06:33:28;68.24;45.48;81.58;;
66888;Laerm;67239;51.680;5.976;2023-06-19T06:36:15;70.22;46.59;82.79;;
66888;Laerm;67239;51.680;5.976;2023-06-19T06:39:14;69.82;47.59;83.87;;
66888;Laerm;67239;51.680;5.976;2023-06-19T06:41:59;65.10;44.22;84.66;;
66888;Laerm;67239;51.680;5.976;2023-06-19T06:44:45;66.19;47.42;79.75;;
66888;Laerm;67239;51.680;5.976;2023-06-19T06:47:30;68.44;47.53;85.27;;
66888;Laerm;67239;51.680;5.976;2023-06-19T06:50:16;68.76;49.55;80.41;;
66888;Laerm;67239;51.680;5.976;2023-06-19T06:53:01;67.97;49.87;80.52;;
66888;Laerm;67239;51.680;5.976;2023-06-19T06:55:47;67.33;47.78;81.34;;
66888;Laerm;67239;51.680;5.976;2023-06-19T06:58:32;67.27;45.23;81.50;;
66888;Laerm;67239;51.680;5.976;2023-06-19T07:01:17;69.22;46.41;83.18;;
66888;Laerm;67239;51.680;5.976;2023-06-19T07:04:03;67.50;43.73;79.17;;
66888;Laerm;67239;51.680;5.976;2023-06-19T07:06:49;70.86;44.89;82.77;;
66888;Laerm;67239;51.680;5.976;2023-06-19T07:09:35;67.38;45.09;78.18;;
66888;Laerm;67239;51.680;5.976;2023-06-19T07:12:20;65.12;44.73;78.72;;
66888;Laerm;67239;51.680;5.976;2023-06-19T07:15:06;65.00;44.74;78.79;;
66888;Laerm;67239;51.680;5.976;2023-06-19T07:17:51;63.40;46.18;77.63;;
66888;Laerm;67239;51.680;5.976;2023-06-19T07:20:37;69.08;46.36;83.92;;
66888;Laerm;67239;51.680;5.976;2023-06-19T07:23:25;64.68;45.14;77.61;;
66888;Laerm;67239;51.680;5.976;2023-06-19T07:26:10;68.53;47.73;83.10;;
66888;Laerm;67239;51.680;5.976;2023-06-19T07:28:56;67.89;46.28;83.97;;
66888;Laerm;67239;51.680;5.976;2023-06-19T07:31:41;65.08;44.37;77.45;;
66888;Laerm;67239;51.680;5.976;2023-06-19T07:34:28;63.92;43.35;80.66;;
66888;Laerm;67239;51.680;5.976;2023-06-19T07:37:13;67.59;47.05;80.78;;
66888;Laerm;67239;51.680;5.976;2023-06-19T07:40:06;65.71;45.05;81.91;;
66888;Laerm;67239;51.680;5.976;2023-06-19T07:42:52;65.39;46.30;79.31;;
66888;Laerm;67239;51.680;5.976;2023-06-19T07:45:37;69.12;44.46;81.97;;
66888;Laerm;67239;51.680;5.976;2023-06-19T07:48:22;66.18;46.19;78.95;;
66888;Laerm;67239;51.680;5.976;2023-06-19T07:51:08;67.86;47.69;80.57;;
66888;Laerm;67239;51.680;5.976;2023-06-19T07:53:53;67.45;45.10;85.26;;
66888;Laerm;67239;51.680;5.976;2023-06-19T07:56:38;65.45;45.40;79.53;;
66888;Laerm;67239;51.680;5.976;2023-06-19T07:59:24;69.34;47.25;86.47;;
66888;Laerm;67239;51.680;5.976;2023-06-19T08:02:10;68.06;50.44;78.94;;
66888;Laerm;67239;51.680;5.976;2023-06-19T08:04:56;69.34;50.60;81.38;;
66888;Laerm;67239;51.680;5.976;2023-06-19T08:07:41;69.79;50.75;82.38;;
66888;Laerm;67239;51.680;5.976;2023-06-19T08:10:26;63.11;46.36;78.54;;
66888;Laerm;67239;51.680;5.976;2023-06-19T08:13:12;64.91;46.35;78.92;;
66888;Laerm;67239;51.680;5.976;2023-06-19T08:15:57;70.81;47.90;91.99;;
66888;Laerm;67239;51.680;5.976;2023-06-19T08:18:44;64.99;45.87;78.97;;
66888;Laerm;67239;51.680;5.976;2023-06-19T08:21:29;69.05;49.54;80.73;;
66888;Laerm;67239;51.680;5.976;2023-06-19T08:24:15;67.83;48.23;82.51;;
66888;Laerm;67239;51.680;5.976;2023-06-19T08:27:00;66.70;48.24;83.06;;
66888;Laerm;67239;51.680;5.976;2023-06-19T08:29:46;63.44;44.10;78.57;;
66888;Laerm;67239;51.680;5.976;2023-06-19T08:32:31;66.07;45.01;80.26;;
66888;Laerm;67239;51.680;5.976;2023-06-19T08:35:16;70.33;51.65;87.56;;
66888;Laerm;67239;51.680;5.976;2023-06-19T08:38:01;66.78;45.27;79.14;;
66888;Laerm;67239;51.680;5.976;2023-06-19T08:40:47;67.08;45.08;78.50;;
66888;Laerm;67239;51.680;5.976;2023-06-19T08:43:32;63.67;43.95;78.45;;
66888;Laerm;67239;51.680;5.976;2023-06-19T08:46:18;64.95;48.17;77.82;;
66888;Laerm;67239;51.680;5.976;2023-06-19T08:49:08;67.42;48.98;82.54;;
66888;Laerm;67239;51.680;5.976;2023-06-19T08:51:56;67.25;46.44;83.01;;
66888;Laerm;67239;51.680;5.976;2023-06-19T08:54:41;64.94;45.30;78.47;;
66888;Laerm;67239;51.680;5.976;2023-06-19T08:57:38;70.73;48.54;101.81;;
66888;Laerm;67239;51.680;5.976;2023-06-19T09:00:29;67.53;46.19;83.26;;
66888;Laerm;67239;51.680;5.976;2023-06-19T09:03:21;65.46;45.13;77.44;;
66888;Laerm;67239;51.680;5.976;2023-06-19T09:06:07;68.13;44.91;82.19;;
66888;Laerm;67239;51.680;5.976;2023-06-19T09:08:59;65.22;43.54;81.33;;
66888;Laerm;67239;51.680;5.976;2023-06-19T09:14:51;67.08;46.69;78.72;;
66888;Laerm;67239;51.680;5.976;2023-06-19T09:17:36;66.72;48.76;79.83;;
66888;Laerm;67239;51.680;5.976;2023-06-19T09:20:37;66.20;48.61;77.53;;
66888;Laerm;67239;51.680;5.976;2023-06-19T09:23:24;67.21;48.03;81.03;;
66888;Laerm;67239;51.680;5.976;2023-06-19T09:26:17;67.48;47.48;80.58;;
66888;Laerm;67239;51.680;5.976;2023-06-19T09:29:14;69.12;45.90;82.40;;
66888;Laerm;67239;51.680;5.976;2023-06-19T09:34:59;68.25;47.94;81.05;;
66888;Laerm;67239;51.680;5.976;2023-06-19T09:37:45;67.74;44.76;83.72;;
66888;Laerm;67239;51.680;5.976;2023-06-19T09:40:32;63.42;45.72;78.37;;
66888;Laerm;67239;51.680;5.976;2023-06-19T09:43:37;66.62;43.14;80.29;;
66888;Laerm;67239;51.680;5.976;2023-06-19T09:46:30;66.26;46.15;81.00;;
66888;Laerm;67239;51.680;5.976;2023-06-19T09:49:18;65.06;43.98;77.54;;
66888;Laerm;67239;51.680;5.976;2023-06-19T09:52:06;67.99;42.09;86.14;;
66888;Laerm;67239;51.680;5.976;2023-06-19T09:54:54;64.96;44.25;78.87;;
66888;Laerm;67239;51.680;5.976;2023-06-19T09:57:41;68.14;47.23;82.34;;
66888;Laerm;67239;51.680;5.976;2023-06-19T10:00:28;67.22;44.10;81.21;;
66888;Laerm;67239;51.680;5.976;2023-06-19T10:03:16;67.48;46.95;81.42;;
66888;Laerm;67239;51.680;5.976;2023-06-19T10:06:03;67.02;48.44;80.24;;
66888;Laerm;67239;51.680;5.976;2023-06-19T10:08:50;68.04;50.30;82.77;;
66888;Laerm;67239;51.680;5.976;2023-06-19T10:11:51;67.11;46.16;78.28;;
66888;Laerm;67239;51.680;5.976;2023-06-19T10:14:46;64.95;45.29;79.67;;
66888;Laerm;67239;51.680;5.976;2023-06-19T10:17:37;68.17;48.49;82.19;;
66888;Laerm;67239;51.680;5.976;2023-06-19T10:20:29;65.73;44.11;77.80;;
66888;Laerm;67239;51.680;5.976;2023-06-19T10:23:23;68.30;47.92;80.68;;
66888;Laerm;67239;51.680;5.976;2023-06-19T10:26:15;65.75;44.88;84.06;;
66888;Laerm;67239;51.680;5.976;2023-06-19T10:29:12;69.35;44.99;85.15;;
66888;Laerm;67239;51.680;5.976;2023-06-19T10:31:58;68.06;45.39;79.11;;
66888;Laerm;67239;51.680;5.976;2023-06-19T10:34:48;65.60;42.91;77.39;;
66888;Laerm;67239;51.680;5.976;2023-06-19T10:37:36;66.22;41.08;82.16;;
66888;Laerm;67239;51.680;5.976;2023-06-19T10:40:21;70.46;44.05;82.16;;
66888;Laerm;67239;51.680;5.976;2023-06-19T10:43:07;66.97;46.23;80.67;;
66888;Laerm;67239;51.680;5.976;2023-06-19T10:45:53;71.48;47.15;82.19;;
66888;Laerm;67239;51.680;5.976;2023-06-19T10:48:40;66.10;41.43;77.87;;
66888;Laerm;67239;51.680;5.976;2023-06-19T10:51:26;64.45;42.82;78.31;;
66888;Laerm;67239;51.680;5.976;2023-06-19T10:54:12;66.47;45.70;79.92;;
66888;Laerm;67239;51.680;5.976;2023-06-19T10:56:58;68.01;48.37;85.29;;
66888;Laerm;67239;51.680;5.976;2023-06-19T10:59:51;67.81;44.85;81.00;;
66888;Laerm;67239;51.680;5.976;2023-06-19T11:02:36;68.64;44.90;83.42;;
66888;Laerm;67239;51.680;5.976;2023-06-19T11:05:27;70.23;46.41;83.11;;
66888;Laerm;67239;51.680;5.976;2023-06-19T11:08:19;68.85;46.06;80.69;;
66888;Laerm;67239;51.680;5.976;2023-06-19T11:11:05;69.26;46.95;83.10;;
66888;Laerm;67239;51.680;5.976;2023-06-19T11:13:50;64.85;43.49;78.40;;
66888;Laerm;67239;51.680;5.976;2023-06-19T11:16:45;70.99;47.83;85.62;;
66888;Laerm;67239;51.680;5.976;2023-06-19T11:19:32;67.90;49.07;81.30;;
66888;Laerm;67239;51.680;5.976;2023-06-19T11:22:20;67.45;46.33;82.36;;
66888;Laerm;67239;51.680;5.976;2023-06-19T11:25:08;66.45;47.16;81.55;;
66888;Laerm;67239;51.680;5.976;2023-06-19T11:27:57;66.89;45.91;81.59;;
66888;Laerm;67239;51.680;5.976;2023-06-19T11:30:44;65.29;45.01;80.65;;
66888;Laerm;67239;51.680;5.976;2023-06-19T11:33:30;68.28;48.82;85.80;;
66888;Laerm;67239;51.680;5.976;2023-06-19T11:36:17;63.92;49.73;78.76;;
66888;Laerm;67239;51.680;5.976;2023-06-19T11:39:03;69.39;55.13;82.95;;
66888;Laerm;67239;51.680;5.976;2023-06-19T11:41:50;66.67;52.08;78.76;;
66888;Laerm;67239;51.680;5.976;2023-06-19T11:44:56;68.59;48.57;82.80;;
66888;Laerm;67239;51.680;5.976;2023-06-19T11:47:44;67.45;45.99;81.37;;
66888;Laerm;67239;51.680;5.976;2023-06-19T11:50:30;68.53;46.81;78.68;;
66888;Laerm;67239;51.680;5.976;2023-06-19T11:53:15;67.80;51.33;79.67;;
66888;Laerm;67239;51.680;5.976;2023-06-19T11:56:01;68.59;45.20;81.44;;
66888;Laerm;67239;51.680;5.976;2023-06-19T11:58:46;68.22;52.03;82.78;;
66888;Laerm;67239;51.680;5.976;2023-06-19T12:01:33;69.45;49.63;81.50;;
66888;Laerm;67239;51.680;5.976;2023-06-19T12:04:19;71.11;49.91;87.55;;
66888;Laerm;67239;51.680;5.976;2023-06-19T12:07:05;71.16;50.25;88.64;;
66888;Laerm;67239;51.680;5.976;2023-06-19T12:09:51;67.86;47.92;81.35;;
66888;Laerm;67239;51.680;5.976;2023-06-19T12:12:37;69.26;46.19;83.79;;
66888;Laerm;67239;51.680;5.976;2023-06-19T12:15:25;70.65;45.25;86.96;;
66888;Laerm;67239;51.680;5.976;2023-06-19T12:18:11;61.57;45.68;73.70;;
66888;Laerm;67239;51.680;5.976;2023-06-19T12:20:57;66.87;45.57;80.27;;
66888;Laerm;67239;51.680;5.976;2023-06-19T12:23:42;66.73;44.63;78.82;;
66888;Laerm;67239;51.680;5.976;2023-06-19T12:26:28;68.68;43.93;81.44;;
66888;Laerm;67239;51.680;5.976;2023-06-19T12:29:13;70.25;44.76;88.41;;
66888;Laerm;67239;51.680;5.976;2023-06-19T12:32:03;69.97;49.13;82.86;;
66888;Laerm;67239;51.680;5.976;2023-06-19T12:34:50;67.22;43.75;87.64;;
66888;Laerm;67239;51.680;5.976;2023-06-19T12:37:39;69.65;47.22;80.33;;
66888;Laerm;67239;51.680;5.976;2023-06-19T12:40:24;70.59;46.26;94.83;;
66888;Laerm;67239;51.680;5.976;2023-06-19T12:43:10;66.72;44.01;79.48;;
66888;Laerm;67239;51.680;5.976;2023-06-19T12:45:55;66.69;44.02;80.45;;
66888;Laerm;67239;51.680;5.976;2023-06-19T12:48:41;68.83;44.57;85.23;;
66888;Laerm;67239;51.680;5.976;2023-06-19T12:51:26;68.38;47.93;79.91;;
66888;Laerm;67239;51.680;5.976;2023-06-19T12:54:11;65.99;46.78;80.21;;
66888;Laerm;67239;51.680;5.976;2023-06-19T12:56:57;67.23;45.29;78.88;;
66888;Laerm;67239;51.680;5.976;2023-06-19T12:59:42;64.66;44.88;76.45;;
66888;Laerm;67239;51.680;5.976;2023-06-19T13:02:28;67.71;43.57;79.39;;
66888;Laerm;67239;51.680;5.976;2023-06-19T13:05:13;66.10;43.72;77.30;;
66888;Laerm;67239;51.680;5.976;2023-06-19T13:07:58;65.90;45.45;79.82;;
66888;Laerm;67239;51.680;5.976;2023-06-19T13:10:43;67.27;47.10;80.14;;
66888;Laerm;67239;51.680;5.976;2023-06-19T13:13:28;65.06;46.22;79.06;;
66888;Laerm;67239;51.680;5.976;2023-06-19T13:16:15;67.34;47.08;81.21;;
66888;Laerm;67239;51.680;5.976;2023-06-19T13:19:01;67.83;44.01;81.17;;
66888;Laerm;67239;51.680;5.976;2023-06-19T13:21:47;63.81;44.38;77.42;;
66888;Laerm;67239;51.680;5.976;2023-06-19T13:24:32;67.75;44.67;82.06;;
66888;Laerm;67239;51.680;5.976;2023-06-19T13:27:18;67.42;45.48;82.58;;
66888;Laerm;67239;51.680;5.976;2023-06-19T13:30:04;69.77;44.10;86.37;;
66888;Laerm;67239;51.680;5.976;2023-06-19T13:32:49;69.21;48.00;80.92;;
66888;Laerm;67239;51.680;5.976;2023-06-19T13:35:35;66.55;46.30;78.54;;
66888;Laerm;67239;51.680;5.976;2023-06-19T13:38:20;67.46;45.37;80.69;;
66888;Laerm;67239;51.680;5.976;2023-06-19T13:41:06;69.22;44.34;80.07;;
66888;Laerm;67239;51.680;5.976;2023-06-19T13:43:52;67.87;47.43;80.51;;
66888;Laerm;67239;51.680;5.976;2023-06-19T13:46:39;67.12;44.05;78.03;;
66888;Laerm;67239;51.680;5.976;2023-06-19T13:49:24;67.97;45.65;81.84;;
66888;Laerm;67239;51.680;5.976;2023-06-19T13:52:09;68.26;45.75;83.95;;
66888;Laerm;67239;51.680;5.976;2023-06-19T13:54:54;67.84;43.36;87.08;;
66888;Laerm;67239;51.680;5.976;2023-06-19T13:57:41;66.74;43.38;78.60;;
66888;Laerm;67239;51.680;5.976;2023-06-19T14:00:27;67.58;43.15;83.69;;
66888;Laerm;67239;51.680;5.976;2023-06-19T14:03:13;68.03;42.20;80.03;;
66888;Laerm;67239;51.680;5.976;2023-06-19T14:05:59;68.19;41.70;82.27;;
66888;Laerm;67239;51.680;5.976;2023-06-19T14:08:44;66.31;45.19;77.23;;
66888;Laerm;67239;51.680;5.976;2023-06-19T14:11:30;67.57;41.91;80.61;;
66888;Laerm;67239;51.680;5.976;2023-06-19T14:14:17;68.15;41.55;81.94;;
66888;Laerm;67239;51.680;5.976;2023-06-19T14:17:03;67.39;44.08;79.91;;
66888;Laerm;67239;51.680;5.976;2023-06-19T14:19:51;64.93;41.06;76.14;;
66888;Laerm;67239;51.680;5.976;2023-06-19T14:22:37;69.30;43.79;79.36;;
66888;Laerm;67239;51.680;5.976;2023-06-19T14:25:22;67.31;41.48;79.97;;
66888;Laerm;67239;51.680;5.976;2023-06-19T14:28:07;68.95;46.74;82.88;;
66888;Laerm;67239;51.680;5.976;2023-06-19T14:30:52;69.25;46.02;79.93;;
66888;Laerm;67239;51.680;5.976;2023-06-19T14:33:38;66.71;43.56;80.84;;
66888;Laerm;67239;51.680;5.976;2023-06-19T14:36:23;69.74;48.23;79.39;;
66888;Laerm;67239;51.680;5.976;2023-06-19T14:39:09;68.60;40.34;80.81;;
66888;Laerm;67239;51.680;5.976;2023-06-19T14:41:56;66.34;39.14;79.31;;
66888;Laerm;67239;51.680;5.976;2023-06-19T14:44:42;67.03;41.77;83.84;;
66888;Laerm;67239;51.680;5.976;2023-06-19T14:47:27;70.54;46.63;82.34;;
66888;Laerm;67239;51.680;5.976;2023-06-19T14:50:13;68.22;42.23;83.79;;
66888;Laerm;67239;51.680;5.976;2023-06-19T14:52:58;67.54;45.39;83.59;;
66888;Laerm;67239;51.680;5.976;2023-06-19T14:55:43;68.09;40.20;81.98;;
66888;Laerm;67239;51.680;5.976;2023-06-19T14:58:30;69.34;49.35;81.40;;
66888;Laerm;67239;51.680;5.976;2023-06-19T15:01:16;68.02;40.89;83.45;;
66888;Laerm;67239;51.680;5.976;2023-06-19T15:04:02;68.93;43.32;80.89;;
66888;Laerm;67239;51.680;5.976;2023-06-19T15:06:47;67.04;41.01;79.31;;
66888;Laerm;67239;51.680;5.976;2023-06-19T15:09:32;66.71;41.52;77.46;;
66888;Laerm;67239;51.680;5.976;2023-06-19T15:12:18;68.83;46.26;83.00;;
66888;Laerm;67239;51.680;5.976;2023-06-19T15:15:04;69.55;43.62;81.21;;
66888;Laerm;67239;51.680;5.976;2023-06-19T15:17:49;68.47;39.65;82.93;;
66888;Laerm;67239;51.680;5.976;2023-06-19T15:20:34;66.55;38.49;80.57;;
66888;Laerm;67239;51.680;5.976;2023-06-19T15:23:20;65.66;38.34;78.08;;
66888;Laerm;67239;51.680;5.976;2023-06-19T15:26:05;68.24;45.87;79.32;;
66888;Laerm;67239;51.680;5.976;2023-06-19T15:28:51;66.96;37.79;82.00;;
66888;Laerm;67239;51.680;5.976;2023-06-19T15:31:38;66.78;38.39;83.29;;
66888;Laerm;67239;51.680;5.976;2023-06-19T15:34:23;65.36;36.55;79.93;;
66888;Laerm;67239;51.680;5.976;2023-06-19T15:37:09;67.31;38.85;82.31;;
66888;Laerm;67239;51.680;5.976;2023-06-19T15:39:56;66.09;35.76;78.86;;